createdAt,value
2023-03-16T00:00:21.621Z,7.81
2023-03-16T00:02:49.052Z,7.77
2023-03-16T00:05:16.953Z,7.73
2023-03-16T00:07:44.418Z,7.95
2023-03-16T00:10:13.620Z,7.89
2023-03-16T00:12:43.794Z,7.92
2023-03-16T00:15:12.650Z,7.95
2023-03-16T00:17:40.337Z,7.98
2023-03-16T00:20:08.256Z,8.06
2023-03-16T00:22:35.716Z,8.00
2023-03-16T00:25:04.867Z,8.09
2023-03-16T00:27:32.214Z,8.14
2023-03-16T00:29:59.681Z,8.24
2023-03-16T00:32:33.110Z,8.11
2023-03-16T00:35:04.504Z,8.20
2023-03-16T00:37:37.101Z,8.25
2023-03-16T00:40:07.904Z,8.21
2023-03-16T00:42:35.299Z,8.10
2023-03-16T00:45:02.791Z,8.26
2023-03-16T00:47:33.077Z,8.15
2023-03-16T00:50:01.674Z,7.64
2023-03-16T00:52:30.289Z,7.82
2023-03-16T00:54:58.607Z,7.95
2023-03-16T00:57:28.809Z,7.99
2023-03-16T00:59:56.350Z,7.96
2023-03-16T01:02:24.813Z,7.99
2023-03-16T01:04:54.794Z,8.10
2023-03-16T01:07:22.633Z,8.02
2023-03-16T01:09:51.413Z,8.04
2023-03-16T01:12:19.796Z,7.99
2023-03-16T01:14:47.880Z,7.96
2023-03-16T01:17:17.461Z,7.96
2023-03-16T01:19:46.108Z,7.88
2023-03-16T01:22:14.624Z,7.87
2023-03-16T01:24:45.307Z,7.83
2023-03-16T01:27:14.187Z,7.63
2023-03-16T01:29:43.776Z,7.53
2023-03-16T01:32:12.314Z,7.55
2023-03-16T01:34:40.105Z,7.53
2023-03-16T01:37:07.802Z,7.76
2023-03-16T01:39:49.160Z,7.71
2023-03-16T01:42:16.630Z,7.81
2023-03-16T01:44:55.248Z,7.83
2023-03-16T01:47:25.096Z,7.72
2023-03-16T01:49:56.188Z,7.78
2023-03-16T01:52:33.595Z,7.77
2023-03-16T01:55:06.212Z,7.71
2023-03-16T01:57:40.009Z,7.57
2023-03-16T02:00:23.628Z,7.65
2023-03-16T02:03:15.315Z,7.73
2023-03-16T02:06:18.342Z,7.48
2023-03-16T02:08:55.438Z,7.52
2023-03-16T02:11:23.728Z,7.42
2023-03-16T02:14:10.582Z,7.65
2023-03-16T02:16:39.294Z,7.67
2023-03-16T02:19:16.960Z,7.65
2023-03-16T02:22:06.535Z,7.57
2023-03-16T02:24:36.209Z,7.53
2023-03-16T02:27:18.716Z,7.47
2023-03-16T02:30:11.795Z,7.43
2023-03-16T02:32:53.409Z,7.47
2023-03-16T02:35:22.522Z,7.39
2023-03-16T02:37:52.656Z,7.49
2023-03-16T02:40:28.895Z,7.40
2023-03-16T02:42:58.315Z,7.43
2023-03-16T02:45:29.338Z,7.37
2023-03-16T02:47:58.912Z,7.42
2023-03-16T02:50:26.588Z,7.38
2023-03-16T02:52:54.155Z,7.36
2023-03-16T02:55:22.218Z,7.32
2023-03-16T02:57:49.602Z,7.44
2023-03-16T03:00:19.322Z,7.41
2023-03-16T03:02:50.290Z,7.43
2023-03-16T03:05:17.777Z,7.30
2023-03-16T03:07:45.312Z,7.26
2023-03-16T03:10:13.797Z,7.23
2023-03-16T03:12:41.231Z,7.43
2023-03-16T03:15:10.451Z,7.42
2023-03-16T03:17:49.495Z,7.45
2023-03-16T03:20:18.210Z,7.40
2023-03-16T03:22:49.416Z,7.41
2023-03-16T03:25:18.681Z,7.39
2023-03-16T03:27:48.186Z,7.55
2023-03-16T03:30:24.668Z,7.53
2023-03-16T03:32:55.104Z,7.58
2023-03-16T03:35:23.196Z,7.51
2023-03-16T03:37:51.368Z,7.55
2023-03-16T03:40:20.865Z,7.40
2023-03-16T03:42:57.634Z,7.51
2023-03-16T03:45:26.357Z,7.38
2023-03-16T03:47:55.332Z,7.43
2023-03-16T03:50:23.748Z,7.58
2023-03-16T03:53:14.372Z,7.38
2023-03-16T03:56:05.347Z,7.37
2023-03-16T03:58:32.981Z,7.48
2023-03-16T04:01:01.267Z,7.65
2023-03-16T04:03:31.285Z,7.65
2023-03-16T04:05:58.843Z,7.61
2023-03-16T04:08:26.260Z,7.59
2023-03-16T04:10:54.175Z,7.59
2023-03-16T04:13:22.857Z,7.51
2023-03-16T04:15:57.216Z,7.67
2023-03-16T04:18:28.203Z,7.58
2023-03-16T04:20:55.979Z,7.66
2023-03-16T04:23:25.250Z,7.78
2023-03-16T04:25:54.854Z,7.73
2023-03-16T04:28:23.001Z,7.66
2023-03-16T04:30:56.769Z,7.42
2023-03-16T04:33:32.370Z,7.40
2023-03-16T04:36:02.549Z,7.57
2023-03-16T04:38:33.762Z,7.49
2023-03-16T04:41:04.002Z,7.67
2023-03-16T04:43:35.589Z,7.48
2023-03-16T04:46:12.795Z,7.45
2023-03-16T04:48:40.666Z,7.63
2023-03-16T04:51:09.236Z,7.18
2023-03-16T04:53:40.174Z,7.49
2023-03-16T04:56:19.858Z,7.05
2023-03-16T04:58:52.946Z,7.32
2023-03-16T05:01:23.711Z,7.23
2023-03-16T05:03:54.782Z,7.14
2023-03-16T05:06:22.453Z,6.59
2023-03-16T05:08:50.194Z,6.85
2023-03-16T05:11:17.936Z,6.90
2023-03-16T05:13:55.596Z,6.74
2023-03-16T05:16:24.052Z,6.56
2023-03-16T05:18:52.995Z,6.41
2023-03-16T05:21:20.629Z,6.42
2023-03-16T05:23:55.529Z,6.03
2023-03-16T05:26:23.122Z,6.16
2023-03-16T05:28:52.094Z,5.99
2023-03-16T05:31:23.818Z,6.36
2023-03-16T05:33:54.573Z,6.46
2023-03-16T05:36:24.844Z,6.63
2023-03-16T05:38:56.133Z,6.58
2023-03-16T05:41:46.452Z,5.98
2023-03-16T05:44:22.079Z,6.33
2023-03-16T05:47:09.232Z,6.72
2023-03-16T05:49:41.523Z,6.67
2023-03-16T05:52:15.546Z,6.18
2023-03-16T05:54:43.861Z,6.36
2023-03-16T05:57:15.859Z,6.54
2023-03-16T05:59:48.820Z,6.43
2023-03-16T06:02:16.732Z,6.65
2023-03-16T06:04:44.432Z,6.65
2023-03-16T06:07:12.219Z,6.55
2023-03-16T06:09:39.949Z,6.76
2023-03-16T06:12:12.783Z,6.67
2023-03-16T06:14:41.435Z,7.01
2023-03-16T06:17:09.075Z,7.46
2023-03-16T06:19:36.988Z,7.65
2023-03-16T06:22:04.642Z,7.32
2023-03-16T06:24:32.814Z,7.55
2023-03-16T06:27:00.503Z,7.53
2023-03-16T06:29:34.289Z,7.50
2023-03-16T06:32:04.098Z,7.57
2023-03-16T06:34:35.443Z,7.95
2023-03-16T06:37:05.559Z,7.84
2023-03-16T06:39:33.488Z,7.93
2023-03-16T06:42:00.933Z,8.18
2023-03-16T06:44:28.457Z,8.17
2023-03-16T06:47:09.272Z,8.45
2023-03-16T06:49:37.438Z,8.52
2023-03-16T06:52:14.583Z,8.81
2023-03-16T06:54:42.042Z,9.03
2023-03-16T06:57:09.900Z,9.02
2023-03-16T06:59:37.364Z,9.16
2023-03-16T07:02:20.297Z,9.16
2023-03-16T07:05:15.226Z,9.57
2023-03-16T07:07:52.528Z,10.00
2023-03-16T07:10:25.505Z,10.26
2023-03-16T07:12:55.342Z,10.31
2023-03-16T07:15:25.719Z,10.63
2023-03-16T07:17:55.563Z,10.78
2023-03-16T07:20:23.847Z,11.00
2023-03-16T07:23:11.120Z,11.08
2023-03-16T07:25:40.090Z,11.48
2023-03-16T07:28:07.873Z,11.26
2023-03-16T07:30:45.927Z,11.85
2023-03-16T07:33:21.586Z,12.90
2023-03-16T07:35:49.570Z,14.22
2023-03-16T07:38:17.138Z,15.34
2023-03-16T07:40:44.943Z,15.17
2023-03-16T07:43:19.822Z,15.44
2023-03-16T07:45:52.132Z,16.23
2023-03-16T07:48:21.050Z,16.35
2023-03-16T07:50:56.165Z,15.45
2023-03-16T07:53:25.054Z,15.10
2023-03-16T07:56:05.223Z,14.30
2023-03-16T07:58:34.910Z,14.51
2023-03-16T08:01:02.389Z,14.53
2023-03-16T08:03:32.170Z,14.49
2023-03-16T08:05:59.797Z,14.52
2023-03-16T08:08:27.774Z,14.50
2023-03-16T08:11:04.420Z,14.79
2023-03-16T08:13:54.297Z,15.04
2023-03-16T08:16:22.980Z,15.06
2023-03-16T08:18:51.985Z,14.78
2023-03-16T08:21:20.298Z,16.20
2023-03-16T08:23:52.019Z,16.71
2023-03-16T08:26:21.299Z,16.71
2023-03-16T08:28:53.187Z,17.01
2023-03-16T08:31:23.503Z,16.94
2023-03-16T08:33:57.479Z,15.62
2023-03-16T08:36:28.943Z,16.45
2023-03-16T08:39:06.683Z,15.99
2023-03-16T08:41:40.729Z,16.60
2023-03-16T08:44:13.823Z,15.86
2023-03-16T08:46:44.926Z,15.72
2023-03-16T08:49:14.666Z,14.39
2023-03-16T08:51:44.887Z,15.68
2023-03-16T08:54:12.696Z,17.20
2023-03-16T08:56:40.082Z,19.65
2023-03-16T08:59:10.453Z,18.96
2023-03-16T09:01:44.321Z,18.22
2023-03-16T09:04:13.215Z,21.83
2023-03-16T09:06:43.310Z,21.49
2023-03-16T09:09:11.076Z,19.66
2023-03-16T09:11:38.493Z,21.71
2023-03-16T09:14:07.048Z,21.37
2023-03-16T09:16:35.697Z,19.52
2023-03-16T09:19:03.189Z,19.75
2023-03-16T09:21:31.384Z,20.47
2023-03-16T09:23:58.931Z,21.35
2023-03-16T09:26:26.718Z,20.44
2023-03-16T09:28:54.618Z,17.74
2023-03-16T09:31:22.934Z,18.61
2023-03-16T09:33:53.489Z,18.35
2023-03-16T09:36:25.105Z,18.38
2023-03-16T09:38:55.176Z,19.61
2023-03-16T09:41:28.940Z,21.68
2023-03-16T09:44:18.309Z,20.23
2023-03-16T09:46:49.739Z,22.30
2023-03-16T09:49:21.227Z,21.61
2023-03-16T09:52:00.540Z,21.30
2023-03-16T09:54:56.228Z,19.93
2023-03-16T09:57:30.625Z,21.97
2023-03-16T10:00:14.346Z,20.71
2023-03-16T10:02:45.076Z,22.93
2023-03-16T10:05:17.461Z,21.62
2023-03-16T10:08:03.655Z,22.53
2023-03-16T10:10:47.219Z,20.68
2023-03-16T10:13:36.586Z,20.34
2023-03-16T10:16:11.231Z,18.36
2023-03-16T10:18:48.332Z,17.95
2023-03-16T10:21:19.576Z,19.26
2023-03-16T10:23:49.623Z,18.72
2023-03-16T10:26:34.200Z,16.49
2023-03-16T10:29:01.829Z,17.81
2023-03-16T10:31:35.266Z,16.50
2023-03-16T10:34:06.400Z,17.44
2023-03-16T10:36:45.073Z,17.97
2023-03-16T10:39:14.480Z,17.04
2023-03-16T10:41:48.540Z,17.93
2023-03-16T10:44:23.577Z,17.15
2023-03-16T10:46:59.742Z,16.94
2023-03-16T10:49:42.241Z,16.80
2023-03-16T10:52:43.307Z,17.44
2023-03-16T10:55:23.113Z,18.37
2023-03-16T10:57:55.779Z,19.21
2023-03-16T11:00:26.581Z,18.70
2023-03-16T11:03:00.004Z,17.54
2023-03-16T11:05:33.393Z,16.79
2023-03-16T11:08:31.590Z,16.40
2023-03-16T11:11:18.736Z,17.79
2023-03-16T11:13:47.951Z,17.19
2023-03-16T11:16:16.889Z,18.03
2023-03-16T11:18:48.879Z,17.44
2023-03-16T11:21:19.408Z,16.62
2023-03-16T11:23:51.349Z,16.87
2023-03-16T11:26:25.288Z,16.79
2023-03-16T11:29:21.682Z,17.54
2023-03-16T11:31:57.784Z,16.15
2023-03-16T11:34:30.706Z,16.62
2023-03-16T11:37:15.795Z,16.08
2023-03-16T11:39:46.087Z,17.00
2023-03-16T11:42:41.527Z,17.26
2023-03-16T11:45:28.705Z,17.65
2023-03-16T11:48:20.517Z,16.36
2023-03-16T11:50:52.713Z,17.12
2023-03-16T11:53:46.179Z,17.26
2023-03-16T11:56:58.183Z,17.50
2023-03-16T12:00:01.579Z,17.04
2023-03-16T12:02:40.562Z,16.28
2023-03-16T12:05:45.137Z,16.22
2023-03-16T12:08:32.038Z,16.07
2023-03-16T12:11:07.897Z,15.67
2023-03-16T12:14:01.448Z,16.36
2023-03-16T12:16:55.966Z,16.63
2023-03-16T12:19:53.709Z,16.12
2023-03-16T12:22:42.183Z,16.07
2023-03-16T12:25:38.169Z,16.71
2023-03-16T12:28:22.226Z,16.84
2023-03-16T12:31:10.612Z,17.38
2023-03-16T12:33:49.928Z,16.82
2023-03-16T12:36:29.075Z,17.16
2023-03-16T12:39:14.471Z,16.39
2023-03-16T12:41:50.519Z,17.01
2023-03-16T12:44:37.149Z,17.39
2023-03-16T12:47:46.429Z,17.32
2023-03-16T12:50:16.699Z,17.32
2023-03-16T12:52:52.802Z,17.46
2023-03-16T12:55:43.348Z,17.69
2023-03-16T12:58:12.645Z,17.01
2023-03-16T13:00:42.734Z,17.68
2023-03-16T13:03:22.283Z,17.66
2023-03-16T13:05:58.818Z,17.60
2023-03-16T13:08:28.967Z,16.91
2023-03-16T13:11:09.717Z,16.30
2023-03-16T13:14:08.917Z,16.33
2023-03-16T13:16:37.999Z,15.84
2023-03-16T13:19:38.503Z,16.19
2023-03-16T13:22:43.992Z,16.61
2023-03-16T13:25:14.282Z,17.00
2023-03-16T13:27:46.219Z,16.07
2023-03-16T13:30:18.809Z,16.52
2023-03-16T13:32:48.048Z,16.36
2023-03-16T13:35:17.374Z,16.34
2023-03-16T13:37:46.032Z,16.94
2023-03-16T13:40:32.742Z,16.74
2023-03-16T13:43:02.111Z,16.35
2023-03-16T13:45:34.561Z,15.78
2023-03-16T13:48:02.205Z,16.11
2023-03-16T13:50:34.588Z,15.92
2023-03-16T13:53:04.719Z,16.46
2023-03-16T13:55:35.663Z,16.67
2023-03-16T13:58:04.279Z,16.21
2023-03-16T14:00:35.678Z,16.27
2023-03-16T14:03:18.628Z,16.20
2023-03-16T14:05:47.602Z,15.97
2023-03-16T14:08:19.643Z,16.12
2023-03-16T14:10:47.855Z,15.74
2023-03-16T14:13:32.588Z,15.34
2023-03-16T14:16:03.249Z,15.48
2023-03-16T14:18:40.603Z,15.26
2023-03-16T14:21:22.148Z,15.30
2023-03-16T14:23:56.867Z,15.64
2023-03-16T14:26:25.094Z,15.83
2023-03-16T14:29:01.922Z,15.92
2023-03-16T14:31:39.793Z,16.01
2023-03-16T14:34:21.433Z,16.27
2023-03-16T14:36:49.166Z,15.72
2023-03-16T14:39:20.887Z,16.01
2023-03-16T14:41:49.890Z,16.33
2023-03-16T14:44:23.449Z,16.23
2023-03-16T14:46:54.212Z,16.28
2023-03-16T14:49:43.372Z,16.42
2023-03-16T14:52:34.224Z,16.45
2023-03-16T14:55:11.650Z,16.38
2023-03-16T14:57:41.753Z,15.85
2023-03-16T15:00:12.735Z,16.24
2023-03-16T15:02:42.800Z,15.87
2023-03-16T15:05:21.648Z,15.72
2023-03-16T15:07:54.387Z,16.03
2023-03-16T15:10:29.331Z,15.69
2023-03-16T15:13:04.255Z,16.08
2023-03-16T15:15:32.654Z,15.92
2023-03-16T15:18:00.205Z,15.53
2023-03-16T15:20:35.399Z,15.82
2023-03-16T15:23:04.969Z,15.83
2023-03-16T15:25:46.704Z,15.89
2023-03-16T15:28:19.785Z,15.88
2023-03-16T15:30:49.704Z,15.54
2023-03-16T15:33:17.667Z,15.65
2023-03-16T15:35:47.794Z,15.80
2023-03-16T15:38:20.740Z,15.55
2023-03-16T15:40:51.132Z,15.33
2023-03-16T15:43:24.681Z,14.94
2023-03-16T15:45:52.378Z,15.27
2023-03-16T15:48:24.260Z,15.34
2023-03-16T15:51:07.723Z,15.18
2023-03-16T15:53:43.841Z,15.17
2023-03-16T15:56:50.926Z,15.48
2023-03-16T15:59:44.037Z,15.50
2023-03-16T16:03:04.692Z,15.55
2023-03-16T16:06:18.297Z,15.25
2023-03-16T16:08:51.306Z,15.28
2023-03-16T16:11:28.603Z,15.44
2023-03-16T16:13:57.961Z,15.00
2023-03-16T16:16:29.871Z,14.91
2023-03-16T16:18:58.130Z,15.16
2023-03-16T16:21:31.632Z,15.19
2023-03-16T16:23:59.148Z,14.80
2023-03-16T16:26:47.025Z,14.84
2023-03-16T16:29:17.713Z,14.94
2023-03-16T16:31:45.549Z,14.57
2023-03-16T16:34:15.546Z,14.28
2023-03-16T16:36:43.900Z,14.55
2023-03-16T16:39:11.893Z,14.66
2023-03-16T16:41:40.698Z,14.17
2023-03-16T16:44:21.474Z,14.43
2023-03-16T16:46:50.405Z,14.17
2023-03-16T16:49:26.569Z,14.27
2023-03-16T16:51:54.528Z,14.36
2023-03-16T16:54:27.745Z,13.97
2023-03-16T16:56:57.399Z,13.97
2023-03-16T16:59:34.183Z,13.69
2023-03-16T17:02:08.266Z,13.91
2023-03-16T17:04:35.726Z,13.81
2023-03-16T17:07:06.572Z,13.87
2023-03-16T17:09:34.007Z,13.79
2023-03-16T17:12:02.386Z,13.61
2023-03-16T17:14:31.466Z,13.45
2023-03-16T17:17:02.639Z,13.41
2023-03-16T17:19:30.541Z,13.57
2023-03-16T17:21:58.477Z,13.24
2023-03-16T17:24:26.430Z,13.18
2023-03-16T17:26:57.608Z,13.12
2023-03-16T17:29:31.473Z,12.85
2023-03-16T17:32:01.395Z,12.78
2023-03-16T17:34:32.483Z,12.74
2023-03-16T17:37:02.201Z,12.69
2023-03-16T17:39:32.624Z,12.86
2023-03-16T17:42:04.234Z,12.59
2023-03-16T17:44:39.070Z,12.59
2023-03-16T17:47:13.113Z,12.34
2023-03-16T17:49:41.060Z,12.30
2023-03-16T17:52:20.727Z,12.29
2023-03-16T17:54:50.556Z,12.35
2023-03-16T17:57:42.009Z,12.25
2023-03-16T18:00:49.445Z,12.23
2023-03-16T18:03:17.820Z,12.07
2023-03-16T18:05:48.784Z,11.96
2023-03-16T18:08:25.844Z,12.07
2023-03-16T18:11:49.662Z,12.02
2023-03-16T18:14:58.573Z,11.80
2023-03-16T18:18:10.516Z,11.59
2023-03-16T18:21:18.370Z,11.71
2023-03-16T18:23:46.495Z,11.47
2023-03-16T18:26:14.009Z,11.42
2023-03-16T18:28:42.127Z,11.39
2023-03-16T18:32:21.643Z,11.49
2023-03-16T18:34:50.946Z,11.38
2023-03-16T18:37:28.129Z,11.21
2023-03-16T18:39:55.825Z,11.14
2023-03-16T18:42:26.383Z,11.14
2023-03-16T18:44:54.195Z,10.89
2023-03-16T18:47:31.701Z,11.06
2023-03-16T18:50:38.133Z,11.03
2023-03-16T18:53:28.292Z,10.88
2023-03-16T18:55:57.556Z,10.92
2023-03-16T18:58:25.971Z,10.84
2023-03-16T19:04:03.025Z,10.93
2023-03-16T19:06:38.923Z,10.93
2023-03-16T19:09:31.148Z,10.79
2023-03-16T19:11:59.568Z,10.76
2023-03-16T19:14:38.167Z,10.50
2023-03-16T19:17:26.191Z,10.41
2023-03-16T19:19:53.705Z,10.50
2023-03-16T19:22:26.556Z,10.37
2023-03-16T19:25:00.034Z,10.36
2023-03-16T19:31:31.889Z,10.39
2023-03-16T19:34:21.408Z,10.30
2023-03-16T19:36:52.674Z,10.37
2023-03-16T19:39:54.423Z,10.29
2023-03-16T19:47:21.968Z,10.12
2023-03-16T19:49:49.501Z,10.12
2023-03-16T19:52:17.239Z,9.92
2023-03-16T19:54:45.666Z,10.11
2023-03-16T19:58:02.062Z,9.91
2023-03-16T20:01:05.451Z,9.93
2023-03-16T20:03:36.583Z,9.94
2023-03-16T20:06:04.463Z,10.03
2023-03-16T20:08:32.196Z,10.02
2023-03-16T20:11:04.140Z,10.04
2023-03-16T20:13:35.618Z,9.98
2023-03-16T20:16:04.529Z,9.97
2023-03-16T20:18:32.176Z,10.14
2023-03-16T20:20:59.689Z,10.03
2023-03-16T20:23:29.429Z,10.00
2023-03-16T20:26:02.159Z,10.11
2023-03-16T20:29:24.708Z,10.15
2023-03-16T20:31:52.580Z,9.94
2023-03-16T20:34:24.442Z,10.05
2023-03-16T20:36:52.188Z,10.01
2023-03-16T20:42:32.216Z,9.96
2023-03-16T20:45:00.468Z,10.03
2023-03-16T20:48:06.684Z,9.92
2023-03-16T20:51:41.084Z,9.81
2023-03-16T20:54:05.393Z,9.77
2023-03-16T20:56:32.907Z,9.84
2023-03-16T20:59:04.111Z,9.71
2023-03-16T21:02:09.112Z,9.65
2023-03-16T21:04:39.015Z,9.73
2023-03-16T21:07:06.946Z,9.60
2023-03-16T21:09:35.253Z,9.46
2023-03-16T21:12:24.882Z,9.46
2023-03-16T21:15:14.447Z,9.47
2023-03-16T21:18:06.522Z,9.36
2023-03-16T21:20:41.746Z,9.41
2023-03-16T21:23:22.688Z,9.36
2023-03-16T21:25:56.883Z,9.41
2023-03-16T21:28:57.598Z,9.29
2023-03-16T21:31:28.617Z,9.36
2023-03-16T21:33:56.507Z,9.30
2023-03-16T21:36:27.671Z,9.02
2023-03-16T21:38:55.914Z,8.92
2023-03-16T21:41:23.696Z,9.04
2023-03-16T21:43:51.756Z,9.06
2023-03-16T21:46:21.428Z,9.05
2023-03-16T21:48:52.524Z,9.09
2023-03-16T21:51:24.909Z,9.07
2023-03-16T21:53:53.594Z,8.84
2023-03-16T21:56:23.810Z,8.97
2023-03-16T21:58:52.621Z,9.00
2023-03-16T22:01:24.859Z,8.89
2023-03-16T22:04:01.181Z,8.97
2023-03-16T22:06:32.253Z,8.93
2023-03-16T22:09:00.831Z,8.95
2023-03-16T22:11:58.853Z,8.84
2023-03-16T22:14:27.269Z,8.72
2023-03-16T22:16:55.552Z,8.83
2023-03-16T22:19:24.456Z,8.70
2023-03-16T22:21:52.163Z,8.80
2023-03-16T22:24:25.705Z,8.69
2023-03-16T22:26:53.916Z,8.84
2023-03-16T22:29:25.508Z,8.78
2023-03-16T22:31:57.890Z,8.74
2023-03-16T22:34:44.129Z,8.75
2023-03-16T22:37:16.375Z,8.71
2023-03-16T22:39:44.883Z,8.73
2023-03-16T22:42:38.962Z,8.81
2023-03-16T22:45:28.904Z,8.81
2023-03-16T22:47:58.466Z,8.78
2023-03-16T22:50:28.860Z,8.58
2023-03-16T22:53:00.724Z,8.50
2023-03-16T22:55:35.757Z,8.50
2023-03-16T22:58:10.460Z,8.35
2023-03-16T23:00:38.372Z,8.48
2023-03-16T23:03:12.724Z,8.06
2023-03-16T23:05:45.002Z,8.23
2023-03-16T23:08:21.693Z,8.24
2023-03-16T23:10:51.670Z,8.34
2023-03-16T23:13:24.163Z,8.39
2023-03-16T23:15:53.657Z,8.46
2023-03-16T23:18:24.949Z,8.53
2023-03-16T23:20:53.037Z,8.51
2023-03-16T23:23:21.125Z,8.40
2023-03-16T23:25:48.772Z,8.42
2023-03-16T23:28:24.537Z,8.37
2023-03-16T23:30:51.978Z,8.43
2023-03-16T23:33:19.829Z,8.34
2023-03-16T23:35:50.322Z,8.33
2023-03-16T23:38:17.654Z,8.28
2023-03-16T23:40:46.593Z,8.28
2023-03-16T23:43:14.149Z,8.10
2023-03-16T23:45:45.210Z,8.16
2023-03-16T23:48:19.444Z,8.03
2023-03-16T23:50:50.038Z,8.11
2023-03-16T23:53:19.146Z,7.99
2023-03-16T23:55:47.050Z,7.85
2023-03-16T23:58:18.743Z,8.03
